sensor_id;sensor_type;location;lat;lon;timestamp;P1;durP1;ratioP1;P2;durP2;ratioP2
35919;SDS011;36160;53.370;-6.196;2023-05-07T00:00:27;12.98;;;4.55;;
35919;SDS011;36160;53.370;-6.196;2023-05-07T00:02:53;10.70;;;4.80;;
35919;SDS011;36160;53.370;-6.196;2023-05-07T00:05:19;16.25;;;5.00;;
35919;SDS011;36160;53.370;-6.196;2023-05-07T00:07:44;17.33;;;3.83;;
35919;SDS011;36160;53.370;-6.196;2023-05-07T00:10:10;10.63;;;4.18;;
35919;SDS011;36160;53.370;-6.196;2023-05-07T00:12:37;12.93;;;3.90;;
35919;SDS011;36160;53.370;-6.196;2023-05-07T00:15:03;12.55;;;4.47;;
35919;SDS011;36160;53.370;-6.196;2023-05-07T00:17:29;9.57;;;4.88;;
35919;SDS011;36160;53.370;-6.196;2023-05-07T00:19:55;10.13;;;4.20;;
35919;SDS011;36160;53.370;-6.196;2023-05-07T00:22:21;17.77;;;6.32;;
35919;SDS011;36160;53.370;-6.196;2023-05-07T00:24:46;13.23;;;4.43;;
35919;SDS011;36160;53.370;-6.196;2023-05-07T00:27:12;15.02;;;4.43;;
35919;SDS011;36160;53.370;-6.196;2023-05-07T00:29:38;20.35;;;4.90;;
35919;SDS011;36160;53.370;-6.196;2023-05-07T00:32:04;14.57;;;5.10;;
35919;SDS011;36160;53.370;-6.196;2023-05-07T00:34:30;12.57;;;3.92;;
35919;SDS011;36160;53.370;-6.196;2023-05-07T00:36:55;8.68;;;3.85;;
35919;SDS011;36160;53.370;-6.196;2023-05-07T00:39:21;21.13;;;4.75;;
35919;SDS011;36160;53.370;-6.196;2023-05-07T00:41:47;10.20;;;4.22;;
35919;SDS011;36160;53.370;-6.196;2023-05-07T00:44:13;18.98;;;4.88;;
35919;SDS011;36160;53.370;-6.196;2023-05-07T00:46:39;16.48;;;4.93;;
35919;SDS011;36160;53.370;-6.196;2023-05-07T00:49:05;14.43;;;5.32;;
35919;SDS011;36160;53.370;-6.196;2023-05-07T00:51:32;16.67;;;5.20;;
35919;SDS011;36160;53.370;-6.196;2023-05-07T00:53:59;13.25;;;4.75;;
35919;SDS011;36160;53.370;-6.196;2023-05-07T00:56:26;14.00;;;4.45;;
35919;SDS011;36160;53.370;-6.196;2023-05-07T00:58:52;9.77;;;4.70;;
35919;SDS011;36160;53.370;-6.196;2023-05-07T01:01:18;12.23;;;3.63;;
35919;SDS011;36160;53.370;-6.196;2023-05-07T01:03:44;19.40;;;4.20;;
35919;SDS011;36160;53.370;-6.196;2023-05-07T01:06:09;11.20;;;3.53;;
35919;SDS011;36160;53.370;-6.196;2023-05-07T01:08:37;10.43;;;4.65;;
35919;SDS011;36160;53.370;-6.196;2023-05-07T01:11:05;14.55;;;4.43;;
35919;SDS011;36160;53.370;-6.196;2023-05-07T01:13:32;23.92;;;5.85;;
35919;SDS011;36160;53.370;-6.196;2023-05-07T01:15:59;14.70;;;4.35;;
35919;SDS011;36160;53.370;-6.196;2023-05-07T01:18:25;22.23;;;6.07;;
35919;SDS011;36160;53.370;-6.196;2023-05-07T01:20:51;13.50;;;4.78;;
35919;SDS011;36160;53.370;-6.196;2023-05-07T01:23:17;13.38;;;3.97;;
35919;SDS011;36160;53.370;-6.196;2023-05-07T01:25:50;16.23;;;4.72;;
35919;SDS011;36160;53.370;-6.196;2023-05-07T01:28:17;13.02;;;4.53;;
35919;SDS011;36160;53.370;-6.196;2023-05-07T01:30:43;12.00;;;3.95;;
35919;SDS011;36160;53.370;-6.196;2023-05-07T01:33:13;13.15;;;4.60;;
35919;SDS011;36160;53.370;-6.196;2023-05-07T01:35:41;13.68;;;3.75;;
35919;SDS011;36160;53.370;-6.196;2023-05-07T01:38:11;15.20;;;4.43;;
35919;SDS011;36160;53.370;-6.196;2023-05-07T01:40:38;11.10;;;3.72;;
35919;SDS011;36160;53.370;-6.196;2023-05-07T01:43:04;11.65;;;3.95;;
35919;SDS011;36160;53.370;-6.196;2023-05-07T01:45:30;9.23;;;3.30;;
35919;SDS011;36160;53.370;-6.196;2023-05-07T01:47:58;8.10;;;3.50;;
35919;SDS011;36160;53.370;-6.196;2023-05-07T01:50:24;13.50;;;4.55;;
35919;SDS011;36160;53.370;-6.196;2023-05-07T01:52:51;9.13;;;3.40;;
35919;SDS011;36160;53.370;-6.196;2023-05-07T01:55:17;14.70;;;4.00;;
35919;SDS011;36160;53.370;-6.196;2023-05-07T01:57:43;11.40;;;3.50;;
35919;SDS011;36160;53.370;-6.196;2023-05-07T02:00:09;9.45;;;3.30;;
35919;SDS011;36160;53.370;-6.196;2023-05-07T02:02:35;10.00;;;3.58;;
35919;SDS011;36160;53.370;-6.196;2023-05-07T02:05:01;11.63;;;3.58;;
35919;SDS011;36160;53.370;-6.196;2023-05-07T02:07:27;16.30;;;4.03;;
35919;SDS011;36160;53.370;-6.196;2023-05-07T02:12:20;10.52;;;3.60;;
35919;SDS011;36160;53.370;-6.196;2023-05-07T02:14:46;12.80;;;3.85;;
35919;SDS011;36160;53.370;-6.196;2023-05-07T02:17:12;16.58;;;4.63;;
35919;SDS011;36160;53.370;-6.196;2023-05-07T02:19:37;12.38;;;3.58;;
35919;SDS011;36160;53.370;-6.196;2023-05-07T02:22:03;9.57;;;3.33;;
35919;SDS011;36160;53.370;-6.196;2023-05-07T02:24:28;11.52;;;2.88;;
35919;SDS011;36160;53.370;-6.196;2023-05-07T02:26:54;13.23;;;3.85;;
35919;SDS011;36160;53.370;-6.196;2023-05-07T02:29:20;12.35;;;3.22;;
35919;SDS011;36160;53.370;-6.196;2023-05-07T12:48:36;7.40;;;2.50;;
35919;SDS011;36160;53.370;-6.196;2023-05-07T12:51:02;6.85;;;2.17;;
35919;SDS011;36160;53.370;-6.196;2023-05-07T12:53:30;11.38;;;2.90;;
35919;SDS011;36160;53.370;-6.196;2023-05-07T12:55:56;6.75;;;2.75;;
35919;SDS011;36160;53.370;-6.196;2023-05-07T12:58:27;10.65;;;3.15;;
35919;SDS011;36160;53.370;-6.196;2023-05-07T13:00:55;8.05;;;3.78;;
35919;SDS011;36160;53.370;-6.196;2023-05-07T13:05:57;9.02;;;3.75;;
35919;SDS011;36160;53.370;-6.196;2023-05-07T13:08:32;11.13;;;3.22;;
35919;SDS011;36160;53.370;-6.196;2023-05-07T13:11:00;9.63;;;2.25;;
35919;SDS011;36160;53.370;-6.196;2023-05-07T13:13:30;9.25;;;3.13;;
35919;SDS011;36160;53.370;-6.196;2023-05-07T13:15:56;12.60;;;2.95;;
35919;SDS011;36160;53.370;-6.196;2023-05-07T13:18:23;12.30;;;3.33;;
35919;SDS011;36160;53.370;-6.196;2023-05-07T13:20:50;8.10;;;2.75;;
35919;SDS011;36160;53.370;-6.196;2023-05-07T13:23:16;13.05;;;2.58;;
35919;SDS011;36160;53.370;-6.196;2023-05-07T13:25:42;13.60;;;3.03;;
35919;SDS011;36160;53.370;-6.196;2023-05-07T13:28:08;9.90;;;2.70;;
35919;SDS011;36160;53.370;-6.196;2023-05-07T13:30:34;11.15;;;3.25;;
35919;SDS011;36160;53.370;-6.196;2023-05-07T13:32:59;9.60;;;2.70;;
35919;SDS011;36160;53.370;-6.196;2023-05-07T13:35:26;11.73;;;4.85;;
35919;SDS011;36160;53.370;-6.196;2023-05-07T13:37:51;9.00;;;2.80;;
35919;SDS011;36160;53.370;-6.196;2023-05-07T13:40:17;10.23;;;2.95;;
35919;SDS011;36160;53.370;-6.196;2023-05-07T13:42:44;12.27;;;2.95;;
35919;SDS011;36160;53.370;-6.196;2023-05-07T13:45:10;7.13;;;2.25;;
35919;SDS011;36160;53.370;-6.196;2023-05-07T13:47:35;8.57;;;2.15;;
35919;SDS011;36160;53.370;-6.196;2023-05-07T13:50:01;4.55;;;1.88;;
35919;SDS011;36160;53.370;-6.196;2023-05-07T13:52:27;3.97;;;1.40;;
35919;SDS011;36160;53.370;-6.196;2023-05-07T13:54:52;2.60;;;1.30;;
35919;SDS011;36160;53.370;-6.196;2023-05-07T13:57:20;3.40;;;1.60;;
35919;SDS011;36160;53.370;-6.196;2023-05-07T13:59:45;3.80;;;1.60;;
35919;SDS011;36160;53.370;-6.196;2023-05-07T14:02:11;4.40;;;1.48;;
35919;SDS011;36160;53.370;-6.196;2023-05-07T14:04:37;3.55;;;1.38;;
35919;SDS011;36160;53.370;-6.196;2023-05-07T14:07:03;3.38;;;1.30;;
35919;SDS011;36160;53.370;-6.196;2023-05-07T14:09:28;2.08;;;0.93;;
35919;SDS011;36160;53.370;-6.196;2023-05-07T14:11:54;3.22;;;1.10;;
35919;SDS011;36160;53.370;-6.196;2023-05-07T14:14:20;4.30;;;1.50;;
35919;SDS011;36160;53.370;-6.196;2023-05-07T14:16:45;5.82;;;1.52;;
35919;SDS011;36160;53.370;-6.196;2023-05-07T14:19:11;5.13;;;1.45;;
35919;SDS011;36160;53.370;-6.196;2023-05-07T14:21:37;5.03;;;1.35;;
35919;SDS011;36160;53.370;-6.196;2023-05-07T14:24:03;2.97;;;1.70;;
35919;SDS011;36160;53.370;-6.196;2023-05-07T14:26:31;2.28;;;1.02;;
35919;SDS011;36160;53.370;-6.196;2023-05-07T14:28:56;2.08;;;1.00;;
35919;SDS011;36160;53.370;-6.196;2023-05-07T14:31:23;4.75;;;1.25;;
35919;SDS011;36160;53.370;-6.196;2023-05-07T14:33:49;5.00;;;1.45;;
35919;SDS011;36160;53.370;-6.196;2023-05-07T14:36:16;3.45;;;1.52;;
35919;SDS011;36160;53.370;-6.196;2023-05-07T14:38:42;4.40;;;1.50;;
35919;SDS011;36160;53.370;-6.196;2023-05-07T14:41:08;5.22;;;2.15;;
35919;SDS011;36160;53.370;-6.196;2023-05-07T14:43:34;9.70;;;2.53;;
35919;SDS011;36160;53.370;-6.196;2023-05-07T14:45:59;11.60;;;2.85;;
35919;SDS011;36160;53.370;-6.196;2023-05-07T14:48:25;12.77;;;3.22;;
35919;SDS011;36160;53.370;-6.196;2023-05-07T14:50:50;13.15;;;3.47;;
35919;SDS011;36160;53.370;-6.196;2023-05-07T14:53:16;11.35;;;2.92;;
35919;SDS011;36160;53.370;-6.196;2023-05-07T14:55:42;15.85;;;3.53;;
35919;SDS011;36160;53.370;-6.196;2023-05-07T14:58:07;22.23;;;4.55;;
35919;SDS011;36160;53.370;-6.196;2023-05-07T15:00:33;16.40;;;3.92;;
35919;SDS011;36160;53.370;-6.196;2023-05-07T15:03:08;14.23;;;5.07;;
35919;SDS011;36160;53.370;-6.196;2023-05-07T15:05:35;18.60;;;4.35;;
35919;SDS011;36160;53.370;-6.196;2023-05-07T15:08:01;17.85;;;3.92;;
35919;SDS011;36160;53.370;-6.196;2023-05-07T15:10:27;15.10;;;3.92;;
35919;SDS011;36160;53.370;-6.196;2023-05-07T15:12:53;12.68;;;3.08;;
35919;SDS011;36160;53.370;-6.196;2023-05-07T15:15:19;19.85;;;4.22;;
35919;SDS011;36160;53.370;-6.196;2023-05-07T15:17:45;16.33;;;5.05;;
35919;SDS011;36160;53.370;-6.196;2023-05-07T15:20:11;14.45;;;3.95;;
35919;SDS011;36160;53.370;-6.196;2023-05-07T15:22:36;14.43;;;4.00;;
35919;SDS011;36160;53.370;-6.196;2023-05-07T15:25:03;10.18;;;3.50;;
35919;SDS011;36160;53.370;-6.196;2023-05-07T15:27:29;11.57;;;3.13;;
35919;SDS011;36160;53.370;-6.196;2023-05-07T15:29:55;11.48;;;4.00;;
35919;SDS011;36160;53.370;-6.196;2023-05-07T15:32:22;10.30;;;3.65;;
35919;SDS011;36160;53.370;-6.196;2023-05-07T15:34:48;11.50;;;3.72;;
35919;SDS011;36160;53.370;-6.196;2023-05-07T15:37:13;13.52;;;4.20;;
35919;SDS011;36160;53.370;-6.196;2023-05-07T15:39:39;11.88;;;4.30;;
35919;SDS011;36160;53.370;-6.196;2023-05-07T15:42:05;16.65;;;3.40;;
35919;SDS011;36160;53.370;-6.196;2023-05-07T15:44:31;19.08;;;4.47;;
35919;SDS011;36160;53.370;-6.196;2023-05-07T15:46:58;17.00;;;4.05;;
35919;SDS011;36160;53.370;-6.196;2023-05-07T15:49:24;14.65;;;3.67;;
35919;SDS011;36160;53.370;-6.196;2023-05-07T15:51:50;19.85;;;4.43;;
35919;SDS011;36160;53.370;-6.196;2023-05-07T15:54:17;8.82;;;2.92;;
35919;SDS011;36160;53.370;-6.196;2023-05-07T15:56:45;8.32;;;2.92;;
35919;SDS011;36160;53.370;-6.196;2023-05-07T15:59:11;15.43;;;4.03;;
35919;SDS011;36160;53.370;-6.196;2023-05-07T16:01:37;17.15;;;4.13;;
35919;SDS011;36160;53.370;-6.196;2023-05-07T16:04:06;17.70;;;5.90;;
35919;SDS011;36160;53.370;-6.196;2023-05-07T16:06:32;17.13;;;4.25;;
35919;SDS011;36160;53.370;-6.196;2023-05-07T16:08:59;13.25;;;3.15;;
35919;SDS011;36160;53.370;-6.196;2023-05-07T16:11:41;8.05;;;2.75;;
35919;SDS011;36160;53.370;-6.196;2023-05-07T16:14:08;14.18;;;3.65;;
35919;SDS011;36160;53.370;-6.196;2023-05-07T16:16:34;14.13;;;4.13;;
35919;SDS011;36160;53.370;-6.196;2023-05-07T16:19:01;12.73;;;2.80;;
35919;SDS011;36160;53.370;-6.196;2023-05-07T16:21:27;12.60;;;3.30;;
35919;SDS011;36160;53.370;-6.196;2023-05-07T16:23:54;21.13;;;4.47;;
35919;SDS011;36160;53.370;-6.196;2023-05-07T16:26:22;20.80;;;4.85;;
35919;SDS011;36160;53.370;-6.196;2023-05-07T16:28:54;9.10;;;3.55;;
35919;SDS011;36160;53.370;-6.196;2023-05-07T16:31:19;7.75;;;3.25;;
35919;SDS011;36160;53.370;-6.196;2023-05-07T16:33:46;13.10;;;4.43;;
35919;SDS011;36160;53.370;-6.196;2023-05-07T16:36:12;14.63;;;4.10;;
35919;SDS011;36160;53.370;-6.196;2023-05-07T16:38:38;15.23;;;3.92;;
35919;SDS011;36160;53.370;-6.196;2023-05-07T16:41:03;24.85;;;4.53;;
35919;SDS011;36160;53.370;-6.196;2023-05-07T16:43:31;15.93;;;3.83;;
35919;SDS011;36160;53.370;-6.196;2023-05-07T16:45:57;18.23;;;4.78;;
35919;SDS011;36160;53.370;-6.196;2023-05-07T16:48:24;20.63;;;4.65;;
35919;SDS011;36160;53.370;-6.196;2023-05-07T16:50:50;17.20;;;4.65;;
35919;SDS011;36160;53.370;-6.196;2023-05-07T16:53:15;10.40;;;4.00;;
35919;SDS011;36160;53.370;-6.196;2023-05-07T16:55:41;16.85;;;5.13;;
35919;SDS011;36160;53.370;-6.196;2023-05-07T16:58:08;21.67;;;4.50;;
35919;SDS011;36160;53.370;-6.196;2023-05-07T17:00:35;18.75;;;4.75;;
35919;SDS011;36160;53.370;-6.196;2023-05-07T17:03:02;24.88;;;5.18;;
35919;SDS011;36160;53.370;-6.196;2023-05-07T17:05:28;21.88;;;4.55;;
35919;SDS011;36160;53.370;-6.196;2023-05-07T17:07:54;21.75;;;5.10;;
35919;SDS011;36160;53.370;-6.196;2023-05-07T17:10:21;21.20;;;4.90;;
35919;SDS011;36160;53.370;-6.196;2023-05-07T17:12:48;34.53;;;6.32;;
35919;SDS011;36160;53.370;-6.196;2023-05-07T17:15:13;18.92;;;4.93;;
35919;SDS011;36160;53.370;-6.196;2023-05-07T17:17:39;24.38;;;5.30;;
35919;SDS011;36160;53.370;-6.196;2023-05-07T17:20:06;14.93;;;4.22;;
35919;SDS011;36160;53.370;-6.196;2023-05-07T17:22:32;24.95;;;6.30;;
35919;SDS011;36160;53.370;-6.196;2023-05-07T17:24:58;17.08;;;4.72;;
35919;SDS011;36160;53.370;-6.196;2023-05-07T17:27:25;19.40;;;4.38;;
35919;SDS011;36160;53.370;-6.196;2023-05-07T17:29:50;17.48;;;5.65;;
35919;SDS011;36160;53.370;-6.196;2023-05-07T17:32:16;21.38;;;5.47;;
35919;SDS011;36160;53.370;-6.196;2023-05-07T17:34:42;18.38;;;5.05;;
35919;SDS011;36160;53.370;-6.196;2023-05-07T17:37:08;23.58;;;6.07;;
35919;SDS011;36160;53.370;-6.196;2023-05-07T17:39:33;19.75;;;4.88;;
35919;SDS011;36160;53.370;-6.196;2023-05-07T17:41:59;19.48;;;4.78;;
35919;SDS011;36160;53.370;-6.196;2023-05-07T17:44:25;18.83;;;5.60;;
35919;SDS011;36160;53.370;-6.196;2023-05-07T17:46:51;17.33;;;4.88;;
35919;SDS011;36160;53.370;-6.196;2023-05-07T17:49:16;15.77;;;5.15;;
35919;SDS011;36160;53.370;-6.196;2023-05-07T17:51:42;23.02;;;5.80;;
35919;SDS011;36160;53.370;-6.196;2023-05-07T17:54:08;19.80;;;4.80;;
35919;SDS011;36160;53.370;-6.196;2023-05-07T17:56:33;15.60;;;3.25;;
35919;SDS011;36160;53.370;-6.196;2023-05-07T17:58:59;20.25;;;3.92;;
35919;SDS011;36160;53.370;-6.196;2023-05-07T18:01:25;18.25;;;4.95;;
35919;SDS011;36160;53.370;-6.196;2023-05-07T18:03:50;12.13;;;3.80;;
35919;SDS011;36160;53.370;-6.196;2023-05-07T18:06:16;16.70;;;3.78;;
35919;SDS011;36160;53.370;-6.196;2023-05-07T18:08:44;14.05;;;3.97;;
35919;SDS011;36160;53.370;-6.196;2023-05-07T18:11:10;30.67;;;4.03;;
35919;SDS011;36160;53.370;-6.196;2023-05-07T18:13:36;23.08;;;6.20;;
35919;SDS011;36160;53.370;-6.196;2023-05-07T18:16:02;17.88;;;3.38;;
35919;SDS011;36160;53.370;-6.196;2023-05-07T18:18:27;13.80;;;4.50;;
35919;SDS011;36160;53.370;-6.196;2023-05-07T18:20:57;20.60;;;4.43;;
35919;SDS011;36160;53.370;-6.196;2023-05-07T18:23:24;14.27;;;4.00;;
35919;SDS011;36160;53.370;-6.196;2023-05-07T18:25:49;24.08;;;5.55;;
35919;SDS011;36160;53.370;-6.196;2023-05-07T18:28:15;19.02;;;4.35;;
35919;SDS011;36160;53.370;-6.196;2023-05-07T18:30:41;26.38;;;5.53;;
35919;SDS011;36160;53.370;-6.196;2023-05-07T18:33:07;23.17;;;4.32;;
35919;SDS011;36160;53.370;-6.196;2023-05-07T18:35:33;12.10;;;3.80;;
35919;SDS011;36160;53.370;-6.196;2023-05-07T18:37:59;13.25;;;3.70;;
35919;SDS011;36160;53.370;-6.196;2023-05-07T18:40:25;12.25;;;3.35;;
35919;SDS011;36160;53.370;-6.196;2023-05-07T18:42:50;17.88;;;4.93;;
35919;SDS011;36160;53.370;-6.196;2023-05-07T18:45:16;21.20;;;5.20;;
35919;SDS011;36160;53.370;-6.196;2023-05-07T18:47:43;13.45;;;4.00;;
35919;SDS011;36160;53.370;-6.196;2023-05-07T18:50:09;18.00;;;4.35;;
35919;SDS011;36160;53.370;-6.196;2023-05-07T18:52:35;22.27;;;3.72;;
35919;SDS011;36160;53.370;-6.196;2023-05-07T18:55:01;14.65;;;3.88;;
35919;SDS011;36160;53.370;-6.196;2023-05-07T18:57:27;15.10;;;3.55;;
35919;SDS011;36160;53.370;-6.196;2023-05-07T18:59:53;19.05;;;4.57;;
35919;SDS011;36160;53.370;-6.196;2023-05-07T19:02:20;13.85;;;3.92;;
35919;SDS011;36160;53.370;-6.196;2023-05-07T19:04:46;12.48;;;2.95;;
35919;SDS011;36160;53.370;-6.196;2023-05-07T19:07:12;18.83;;;4.63;;
35919;SDS011;36160;53.370;-6.196;2023-05-07T19:09:38;23.33;;;4.60;;
35919;SDS011;36160;53.370;-6.196;2023-05-07T19:12:04;10.73;;;3.50;;
35919;SDS011;36160;53.370;-6.196;2023-05-07T19:14:30;12.85;;;3.30;;
35919;SDS011;36160;53.370;-6.196;2023-05-07T19:16:56;9.55;;;2.63;;
35919;SDS011;36160;53.370;-6.196;2023-05-07T19:19:22;10.50;;;3.35;;
35919;SDS011;36160;53.370;-6.196;2023-05-07T19:21:48;8.68;;;1.70;;
35919;SDS011;36160;53.370;-6.196;2023-05-07T19:24:13;7.80;;;2.65;;
35919;SDS011;36160;53.370;-6.196;2023-05-07T19:26:39;9.05;;;2.75;;
35919;SDS011;36160;53.370;-6.196;2023-05-07T19:29:05;10.38;;;2.67;;
35919;SDS011;36160;53.370;-6.196;2023-05-07T19:31:31;7.22;;;1.95;;
35919;SDS011;36160;53.370;-6.196;2023-05-07T19:33:58;8.30;;;2.13;;
35919;SDS011;36160;53.370;-6.196;2023-05-07T19:36:24;9.10;;;2.03;;
35919;SDS011;36160;53.370;-6.196;2023-05-07T19:38:50;6.18;;;2.70;;
35919;SDS011;36160;53.370;-6.196;2023-05-07T19:41:18;11.60;;;2.55;;
35919;SDS011;36160;53.370;-6.196;2023-05-07T19:43:46;10.40;;;2.58;;
35919;SDS011;36160;53.370;-6.196;2023-05-07T19:46:12;13.90;;;4.05;;
35919;SDS011;36160;53.370;-6.196;2023-05-07T19:48:38;16.10;;;3.50;;
35919;SDS011;36160;53.370;-6.196;2023-05-07T19:51:03;18.00;;;5.20;;
35919;SDS011;36160;53.370;-6.196;2023-05-07T19:53:29;8.23;;;2.58;;
35919;SDS011;36160;53.370;-6.196;2023-05-07T19:56:05;8.35;;;2.10;;
35919;SDS011;36160;53.370;-6.196;2023-05-07T19:58:32;9.52;;;2.35;;
35919;SDS011;36160;53.370;-6.196;2023-05-07T20:00:58;6.85;;;2.30;;
35919;SDS011;36160;53.370;-6.196;2023-05-07T20:03:25;12.15;;;2.22;;
35919;SDS011;36160;53.370;-6.196;2023-05-07T20:05:52;12.25;;;3.53;;
35919;SDS011;36160;53.370;-6.196;2023-05-07T20:08:18;4.57;;;1.80;;
35919;SDS011;36160;53.370;-6.196;2023-05-07T20:10:44;5.68;;;2.72;;
35919;SDS011;36160;53.370;-6.196;2023-05-07T20:13:10;6.38;;;1.90;;
35919;SDS011;36160;53.370;-6.196;2023-05-07T20:15:36;9.82;;;3.17;;
35919;SDS011;36160;53.370;-6.196;2023-05-07T20:18:03;8.52;;;2.28;;
35919;SDS011;36160;53.370;-6.196;2023-05-07T20:20:28;9.55;;;2.63;;
35919;SDS011;36160;53.370;-6.196;2023-05-07T20:22:54;6.47;;;2.88;;
35919;SDS011;36160;53.370;-6.196;2023-05-07T20:25:20;11.18;;;2.40;;
35919;SDS011;36160;53.370;-6.196;2023-05-07T20:27:46;6.30;;;2.53;;
35919;SDS011;36160;53.370;-6.196;2023-05-07T20:30:12;6.95;;;1.92;;
35919;SDS011;36160;53.370;-6.196;2023-05-07T20:32:38;6.65;;;2.13;;
35919;SDS011;36160;53.370;-6.196;2023-05-07T20:35:04;6.97;;;2.10;;
35919;SDS011;36160;53.370;-6.196;2023-05-07T20:37:30;5.82;;;2.63;;
35919;SDS011;36160;53.370;-6.196;2023-05-07T20:39:58;9.25;;;2.22;;
35919;SDS011;36160;53.370;-6.196;2023-05-07T20:42:24;11.85;;;2.40;;
35919;SDS011;36160;53.370;-6.196;2023-05-07T20:44:51;7.43;;;1.92;;
35919;SDS011;36160;53.370;-6.196;2023-05-07T20:47:17;5.78;;;1.95;;
35919;SDS011;36160;53.370;-6.196;2023-05-07T20:49:47;10.10;;;2.58;;
35919;SDS011;36160;53.370;-6.196;2023-05-07T20:54:40;7.15;;;2.03;;
35919;SDS011;36160;53.370;-6.196;2023-05-07T20:57:07;9.45;;;2.50;;
35919;SDS011;36160;53.370;-6.196;2023-05-07T20:59:33;8.93;;;2.65;;
35919;SDS011;36160;53.370;-6.196;2023-05-07T21:02:00;13.15;;;3.35;;
35919;SDS011;36160;53.370;-6.196;2023-05-07T21:04:26;15.70;;;5.13;;
35919;SDS011;36160;53.370;-6.196;2023-05-07T21:06:53;6.60;;;3.00;;
35919;SDS011;36160;53.370;-6.196;2023-05-07T21:09:19;13.40;;;4.75;;
35919;SDS011;36160;53.370;-6.196;2023-05-07T21:11:44;10.98;;;3.97;;
35919;SDS011;36160;53.370;-6.196;2023-05-07T21:14:10;9.40;;;2.72;;
35919;SDS011;36160;53.370;-6.196;2023-05-07T21:16:36;20.05;;;4.88;;
35919;SDS011;36160;53.370;-6.196;2023-05-07T21:19:02;12.65;;;3.47;;
35919;SDS011;36160;53.370;-6.196;2023-05-07T21:21:27;16.88;;;3.95;;
35919;SDS011;36160;53.370;-6.196;2023-05-07T21:23:53;14.90;;;3.22;;
35919;SDS011;36160;53.370;-6.196;2023-05-07T21:26:19;18.05;;;5.60;;
35919;SDS011;36160;53.370;-6.196;2023-05-07T21:28:45;18.13;;;4.65;;
35919;SDS011;36160;53.370;-6.196;2023-05-07T21:31:11;19.58;;;4.22;;
35919;SDS011;36160;53.370;-6.196;2023-05-07T21:33:37;19.85;;;5.15;;
35919;SDS011;36160;53.370;-6.196;2023-05-07T21:36:03;14.18;;;3.47;;
35919;SDS011;36160;53.370;-6.196;2023-05-07T21:38:30;17.70;;;4.35;;
35919;SDS011;36160;53.370;-6.196;2023-05-07T21:40:56;10.40;;;3.83;;
35919;SDS011;36160;53.370;-6.196;2023-05-07T21:43:22;6.47;;;2.25;;
35919;SDS011;36160;53.370;-6.196;2023-05-07T21:45:48;8.88;;;3.25;;
35919;SDS011;36160;53.370;-6.196;2023-05-07T21:48:14;16.33;;;3.70;;
35919;SDS011;36160;53.370;-6.196;2023-05-07T21:50:42;15.43;;;3.08;;
35919;SDS011;36160;53.370;-6.196;2023-05-07T21:53:08;11.13;;;2.97;;
35919;SDS011;36160;53.370;-6.196;2023-05-07T21:55:34;13.52;;;4.05;;
35919;SDS011;36160;53.370;-6.196;2023-05-07T21:57:59;11.82;;;3.40;;
35919;SDS011;36160;53.370;-6.196;2023-05-07T22:00:25;11.45;;;4.40;;
35919;SDS011;36160;53.370;-6.196;2023-05-07T22:02:51;15.10;;;4.03;;
35919;SDS011;36160;53.370;-6.196;2023-05-07T22:05:16;13.95;;;3.90;;
35919;SDS011;36160;53.370;-6.196;2023-05-07T22:07:42;22.38;;;3.95;;
35919;SDS011;36160;53.370;-6.196;2023-05-07T22:10:08;17.17;;;4.28;;
35919;SDS011;36160;53.370;-6.196;2023-05-07T22:12:34;20.17;;;4.78;;
35919;SDS011;36160;53.370;-6.196;2023-05-07T22:15:00;20.08;;;4.55;;
35919;SDS011;36160;53.370;-6.196;2023-05-07T22:17:26;19.50;;;5.30;;
35919;SDS011;36160;53.370;-6.196;2023-05-07T22:19:51;31.30;;;6.60;;
35919;SDS011;36160;53.370;-6.196;2023-05-07T22:22:17;27.30;;;5.17;;
35919;SDS011;36160;53.370;-6.196;2023-05-07T22:24:43;23.30;;;5.15;;
35919;SDS011;36160;53.370;-6.196;2023-05-07T22:27:10;27.00;;;6.60;;
35919;SDS011;36160;53.370;-6.196;2023-05-07T22:29:36;25.67;;;5.80;;
35919;SDS011;36160;53.370;-6.196;2023-05-07T22:32:02;15.32;;;5.47;;
35919;SDS011;36160;53.370;-6.196;2023-05-07T22:34:27;21.15;;;6.00;;
35919;SDS011;36160;53.370;-6.196;2023-05-07T22:36:53;26.77;;;5.78;;
35919;SDS011;36160;53.370;-6.196;2023-05-07T22:39:19;24.15;;;5.45;;
35919;SDS011;36160;53.370;-6.196;2023-05-07T22:41:45;23.98;;;6.50;;
35919;SDS011;36160;53.370;-6.196;2023-05-07T22:44:11;31.50;;;5.70;;
35919;SDS011;36160;53.370;-6.196;2023-05-07T22:46:37;22.77;;;5.35;;
35919;SDS011;36160;53.370;-6.196;2023-05-07T22:49:03;25.15;;;5.38;;
35919;SDS011;36160;53.370;-6.196;2023-05-07T22:51:29;27.55;;;4.97;;
35919;SDS011;36160;53.370;-6.196;2023-05-07T22:53:55;32.72;;;6.57;;
35919;SDS011;36160;53.370;-6.196;2023-05-07T22:56:21;22.08;;;6.40;;
35919;SDS011;36160;53.370;-6.196;2023-05-07T22:58:47;28.05;;;5.97;;
35919;SDS011;36160;53.370;-6.196;2023-05-07T23:01:14;27.23;;;6.03;;
35919;SDS011;36160;53.370;-6.196;2023-05-07T23:03:40;28.95;;;5.63;;
35919;SDS011;36160;53.370;-6.196;2023-05-07T23:06:06;28.40;;;4.90;;
35919;SDS011;36160;53.370;-6.196;2023-05-07T23:08:32;34.17;;;5.90;;
35919;SDS011;36160;53.370;-6.196;2023-05-07T23:10:59;27.83;;;5.63;;
35919;SDS011;36160;53.370;-6.196;2023-05-07T23:13:25;21.40;;;5.28;;
35919;SDS011;36160;53.370;-6.196;2023-05-07T23:15:50;21.98;;;4.32;;
35919;SDS011;36160;53.370;-6.196;2023-05-07T23:18:16;20.63;;;5.22;;
35919;SDS011;36160;53.370;-6.196;2023-05-07T23:20:42;20.65;;;4.32;;
35919;SDS011;36160;53.370;-6.196;2023-05-07T23:23:08;17.73;;;4.18;;
35919;SDS011;36160;53.370;-6.196;2023-05-07T23:25:34;19.92;;;4.20;;
35919;SDS011;36160;53.370;-6.196;2023-05-07T23:28:00;14.98;;;3.05;;
35919;SDS011;36160;53.370;-6.196;2023-05-07T23:30:27;17.65;;;2.65;;
35919;SDS011;36160;53.370;-6.196;2023-05-07T23:32:52;8.88;;;2.35;;
35919;SDS011;36160;53.370;-6.196;2023-05-07T23:35:18;10.02;;;2.03;;
35919;SDS011;36160;53.370;-6.196;2023-05-07T23:37:44;6.80;;;1.95;;
35919;SDS011;36160;53.370;-6.196;2023-05-07T23:40:09;5.78;;;1.80;;
35919;SDS011;36160;53.370;-6.196;2023-05-07T23:42:35;12.57;;;2.58;;
35919;SDS011;36160;53.370;-6.196;2023-05-07T23:45:01;9.65;;;2.15;;
35919;SDS011;36160;53.370;-6.196;2023-05-07T23:47:27;15.55;;;2.35;;
35919;SDS011;36160;53.370;-6.196;2023-05-07T23:49:54;6.13;;;1.42;;
35919;SDS011;36160;53.370;-6.196;2023-05-07T23:52:19;8.05;;;1.65;;
35919;SDS011;36160;53.370;-6.196;2023-05-07T23:54:45;15.05;;;1.63;;
35919;SDS011;36160;53.370;-6.196;2023-05-07T23:57:11;10.48;;;1.50;;
35919;SDS011;36160;53.370;-6.196;2023-05-07T23:59:38;10.70;;;1.80;;
